Time;durP1;ratioP1;P1;durP2;ratioP2;P2;SDS_P1;SDS_P2;PMS_P1;PMS_P2;Temp;Humidity;BMP_temperature;BMP_pressure;BME280_temperature;BME280_humidity;BME280_pressure;Samples;Min_cycle;Max_cycle;Signal;HPM_P1;HPM_P2
2023/04/02 00:00:09;;;;;;;22.10;17.30;;;7.00;99.90;;;;;;5013539;28;20250;-81
2023/04/02 00:03:00;;;;;;;25.23;19.05;;;7.00;99.90;;;;;;4999556;28;20205;-83
2023/04/02 00:05:33;;;;;;;20.33;16.10;;;6.90;99.90;;;;;;5008979;28;20255;-83
2023/04/02 00:08:08;;;;;;;22.90;16.20;;;6.90;99.90;;;;;;5001652;28;20786;-84
2023/04/02 00:10:36;;;;;;;22.90;17.55;;;6.90;99.90;;;;;;4986679;28;20209;-83
2023/04/02 00:13:09;;;;;;;26.25;19.20;;;6.90;99.90;;;;;;4999850;28;20215;-83
2023/04/02 00:15:39;;;;;;;26.20;20.75;;;6.90;99.90;;;;;;5004614;28;20210;-85
2023/04/02 00:18:08;;;;;;;24.73;17.75;;;6.90;99.90;;;;;;5002106;28;20221;-82
2023/04/02 00:20:39;;;;;;;24.92;21.55;;;6.70;99.90;;;;;;4995863;28;20257;-81
2023/04/02 00:23:09;;;;;;;23.55;19.42;;;6.60;99.90;;;;;;5008517;28;20440;-82
2023/04/02 00:25:47;;;;;;;28.80;19.77;;;6.50;99.90;;;;;;5002858;28;20205;-83
2023/04/02 00:28:18;;;;;;;25.60;20.27;;;6.30;99.90;;;;;;5013266;28;20255;-85
2023/04/02 00:30:55;;;;;;;25.88;21.10;;;6.30;99.90;;;;;;5006915;28;20675;-86
2023/04/02 00:33:26;;;;;;;24.83;20.90;;;6.20;99.90;;;;;;5012678;28;20224;-83
2023/04/02 00:35:54;;;;;;;25.58;17.75;;;6.10;99.90;;;;;;4992377;28;20291;-82
2023/04/02 00:38:32;;;;;;;22.48;18.90;;;6.00;99.90;;;;;;4996669;28;20205;-81
2023/04/02 00:41:02;;;;;;;25.13;18.58;;;6.00;99.90;;;;;;5002514;28;20533;-83
2023/04/02 00:43:34;;;;;;;25.63;18.58;;;6.00;99.90;;;;;;5002915;28;20205;-80
2023/04/02 00:46:12;;;;;;;25.75;19.88;;;5.90;99.90;;;;;;5001005;28;20224;-87
2023/04/02 00:49:00;;;;;;;22.73;15.85;;;5.80;99.90;;;;;;5004567;28;20216;-82
2023/04/02 00:51:33;;;;;;;25.40;19.10;;;5.90;99.90;;;;;;5001050;28;20247;-82
2023/04/02 00:54:04;;;;;;;27.55;20.27;;;5.80;99.90;;;;;;4980342;28;20221;-83
2023/04/02 00:56:39;;;;;;;27.35;18.98;;;5.80;99.90;;;;;;4982917;28;20278;-83
2023/04/02 00:59:23;;;;;;;27.35;18.85;;;5.80;99.90;;;;;;4970462;28;20231;-80
2023/04/02 01:02:00;;;;;;;28.38;19.58;;;5.80;99.90;;;;;;4994389;28;20598;-84
2023/04/02 01:04:33;;;;;;;30.13;20.45;;;5.80;99.90;;;;;;4987527;28;20272;-82
2023/04/02 01:07:05;;;;;;;29.17;19.05;;;5.80;99.90;;;;;;5007075;28;20219;-85
2023/04/02 01:09:32;;;;;;;32.35;21.65;;;5.70;99.90;;;;;;4990566;28;20232;-83
2023/04/02 01:12:23;;;;;;;25.10;18.73;;;5.60;99.90;;;;;;5014542;28;20219;-85
2023/04/02 01:15:02;;;;;;;25.88;19.20;;;5.60;99.90;;;;;;5004803;28;20209;-81
2023/04/02 01:17:47;;;;;;;28.95;19.23;;;5.50;99.90;;;;;;5000941;28;20209;-83
2023/04/02 01:20:49;;;;;;;28.25;18.90;;;5.50;99.90;;;;;;5002872;28;20225;-80
2023/04/02 01:23:38;;;;;;;23.52;18.10;;;5.50;99.90;;;;;;5004974;28;20219;-83
2023/04/02 01:26:25;;;;;;;23.35;17.58;;;5.30;99.90;;;;;;5002711;28;20205;-81
2023/04/02 01:29:05;;;;;;;24.85;15.70;;;5.20;99.90;;;;;;5010298;28;20209;-80
2023/04/02 01:31:33;;;;;;;24.13;18.20;;;5.20;99.90;;;;;;5005160;28;20211;-83
2023/04/02 01:34:02;;;;;;;20.40;14.82;;;5.10;99.90;;;;;;5014064;28;20236;-80
2023/04/02 01:36:52;;;;;;;19.83;15.10;;;5.10;99.90;;;;;;5009493;28;20205;-82
2023/04/02 01:39:24;;;;;;;21.88;15.55;;;5.20;99.90;;;;;;5002213;28;20272;-81
2023/04/02 01:42:04;;;;;;;24.63;16.55;;;5.10;99.90;;;;;;4988946;28;20632;-83
2023/04/02 01:44:47;;;;;;;21.45;15.45;;;5.20;99.90;;;;;;4997504;28;20277;-83
2023/04/02 01:47:20;;;;;;;21.75;16.80;;;5.20;99.90;;;;;;5011876;28;20196;-83
2023/04/02 01:49:47;;;;;;;24.38;18.00;;;5.20;99.90;;;;;;5006657;28;20212;-83
2023/04/02 01:52:33;;;;;;;24.30;19.15;;;5.10;99.90;;;;;;5018190;28;20209;-81
2023/04/02 01:55:02;;;;;;;22.88;18.30;;;5.00;99.90;;;;;;5005934;28;20449;-81
2023/04/02 01:57:29;;;;;;;22.90;16.98;;;5.00;99.90;;;;;;4997732;28;20505;-82
2023/04/02 02:00:00;;;;;;;19.23;15.38;;;5.00;99.90;;;;;;5020490;28;20400;-81
2023/04/02 02:02:27;;;;;;;23.20;17.33;;;4.80;99.90;;;;;;4986125;28;20259;-81
2023/04/02 02:04:54;;;;;;;22.77;16.80;;;4.80;99.90;;;;;;4995046;28;20201;-79
2023/04/02 02:07:23;;;;;;;20.30;16.90;;;4.70;99.90;;;;;;5011691;28;20434;-82
2023/04/02 02:09:50;;;;;;;23.00;16.52;;;4.80;99.90;;;;;;4979256;28;20213;-82
2023/04/02 02:12:17;;;;;;;20.52;15.52;;;4.80;99.90;;;;;;5001290;28;20227;-80
2023/04/02 02:14:51;;;;;;;23.15;17.30;;;4.70;99.90;;;;;;4986390;28;20243;-80
2023/04/02 02:17:26;;;;;;;24.75;17.88;;;4.70;99.90;;;;;;5006244;28;20213;-84
2023/04/02 02:19:57;;;;;;;21.33;15.23;;;4.70;99.90;;;;;;4990599;28;20213;-84
2023/04/02 02:22:27;;;;;;;22.88;17.17;;;4.70;99.90;;;;;;5001407;28;20425;-81
2023/04/02 02:24:59;;;;;;;22.80;17.48;;;4.70;99.90;;;;;;4984471;28;20212;-80
2023/04/02 02:27:54;;;;;;;16.98;14.60;;;4.60;99.90;;;;;;5009535;28;20220;-81
2023/04/02 02:30:30;;;;;;;22.98;18.25;;;4.70;99.90;;;;;;5000994;28;20211;-81
2023/04/02 02:33:05;;;;;;;22.33;17.55;;;4.70;99.90;;;;;;5004992;28;20216;-81
2023/04/02 02:35:45;;;;;;;17.80;15.13;;;4.70;99.90;;;;;;5005594;28;20220;-83
2023/04/02 02:38:21;;;;;;;18.55;14.75;;;4.60;99.90;;;;;;5007734;28;20207;-82
2023/04/02 02:40:53;;;;;;;19.05;14.88;;;4.60;99.90;;;;;;5008833;28;20224;-81
2023/04/02 02:43:20;;;;;;;24.35;16.83;;;4.50;99.90;;;;;;4994221;28;20256;-82
2023/04/02 02:45:52;;;;;;;20.08;15.15;;;4.50;99.90;;;;;;5001519;28;20311;-81
2023/04/02 02:48:25;;;;;;;21.50;17.20;;;4.50;99.90;;;;;;5004313;28;20433;-83
2023/04/02 02:50:54;;;;;;;18.00;15.18;;;4.40;99.90;;;;;;4991462;28;20200;-79
2023/04/02 02:53:23;;;;;;;21.80;15.98;;;4.40;99.90;;;;;;5013911;28;20403;-80
2023/04/02 02:55:57;;;;;;;19.55;15.88;;;4.40;99.90;;;;;;5001248;28;20204;-81
2023/04/02 02:58:30;;;;;;;22.60;16.58;;;4.40;99.90;;;;;;4989940;28;20212;-79
2023/04/02 03:00:57;;;;;;;19.98;16.05;;;4.40;99.90;;;;;;5008740;28;20452;-83
2023/04/02 03:03:31;;;;;;;18.63;15.20;;;4.40;99.90;;;;;;5016400;28;20296;-81
2023/04/02 03:06:08;;;;;;;19.85;16.52;;;4.40;99.90;;;;;;4988379;28;20544;-81
2023/04/02 03:08:47;;;;;;;17.15;14.48;;;4.30;99.90;;;;;;5003210;28;20208;-83
2023/04/02 03:11:25;;;;;;;18.30;15.02;;;4.20;99.90;;;;;;5001574;28;20386;-81
2023/04/02 03:13:59;;;;;;;20.58;15.98;;;4.20;99.90;;;;;;5013472;28;20208;-80
2023/04/02 03:16:34;;;;;;;20.58;15.55;;;4.20;99.90;;;;;;5002028;28;20259;-80
2023/04/02 03:19:26;;;;;;;17.23;13.98;;;4.20;99.90;;;;;;5001035;28;20208;-81
2023/04/02 03:21:56;;;;;;;16.90;14.23;;;4.20;99.90;;;;;;5005276;28;20239;-84
2023/04/02 03:24:40;;;;;;;15.90;13.30;;;4.10;99.90;;;;;;5010590;28;20248;-81
2023/04/02 03:27:18;;;;;;;14.38;11.15;;;3.90;99.90;;;;;;5004160;28;20232;-80
2023/04/02 03:29:57;;;;;;;16.77;13.95;;;3.80;99.90;;;;;;5001646;28;20697;-81
2023/04/02 03:32:29;;;;;;;15.15;11.25;;;3.70;99.90;;;;;;5016815;28;20211;-81
2023/04/02 03:35:39;;;;;;;15.98;12.73;;;3.70;99.90;;;;;;5004941;28;20235;-81
2023/04/02 03:38:11;;;;;;;13.10;10.77;;;3.60;99.90;;;;;;4991771;28;20212;-82
2023/04/02 03:40:57;;;;;;;15.02;11.20;;;3.50;99.90;;;;;;5004016;28;20220;-79
2023/04/02 03:43:31;;;;;;;14.50;10.90;;;3.50;99.90;;;;;;5008256;28;20218;-80
2023/04/02 03:46:11;;;;;;;11.88;10.27;;;3.40;99.90;;;;;;4983076;28;20212;-81
2023/04/02 03:48:45;;;;;;;13.20;11.30;;;3.40;99.90;;;;;;5006133;28;20315;-83
2023/04/02 03:51:28;;;;;;;12.18;10.85;;;3.40;99.90;;;;;;5012470;28;20618;-86
2023/04/02 03:53:55;;;;;;;14.00;11.15;;;3.40;99.90;;;;;;5006765;28;20207;-82
2023/04/02 03:56:32;;;;;;;17.08;14.05;;;3.40;99.90;;;;;;5007714;28;20207;-83
2023/04/02 03:59:19;;;;;;;14.88;12.48;;;3.30;99.90;;;;;;4994051;28;20254;-84
2023/04/02 04:02:00;;;;;;;15.32;12.65;;;3.40;99.90;;;;;;5001157;28;20274;-86
2023/04/02 04:04:30;;;;;;;14.18;11.80;;;3.30;99.90;;;;;;5015410;28;20231;-82
2023/04/02 04:07:00;;;;;;;16.23;14.40;;;3.20;99.90;;;;;;5017647;28;20192;-83
2023/04/02 04:09:38;;;;;;;16.52;13.75;;;3.30;99.90;;;;;;5017721;28;20259;-81
2023/04/02 04:12:16;;;;;;;20.95;14.40;;;3.30;99.90;;;;;;5014233;28;20211;-82
2023/04/02 04:14:50;;;;;;;17.17;13.95;;;3.40;99.90;;;;;;4969999;28;20209;-83
2023/04/02 04:17:29;;;;;;;14.60;11.82;;;3.30;99.90;;;;;;5008970;28;20205;-80
2023/04/02 04:20:11;;;;;;;16.67;14.10;;;3.20;99.90;;;;;;5004121;28;20315;-80
2023/04/02 04:22:39;;;;;;;15.85;12.60;;;3.20;99.90;;;;;;4983949;28;20282;-80
2023/04/02 04:25:19;;;;;;;15.88;13.90;;;3.30;99.90;;;;;;4982331;28;20425;-79
2023/04/02 04:27:52;;;;;;;18.80;13.18;;;3.30;99.90;;;;;;4998673;28;20211;-80
2023/04/02 04:30:40;;;;;;;16.05;13.90;;;3.40;99.90;;;;;;5012048;28;20211;-80
2023/04/02 04:33:21;;;;;;;21.35;13.00;;;3.40;99.90;;;;;;4998580;28;20217;-79
2023/04/02 04:35:58;;;;;;;16.25;13.30;;;3.50;99.90;;;;;;5000524;28;20566;-80
2023/04/02 04:38:38;;;;;;;16.55;13.55;;;3.40;99.90;;;;;;5003268;28;20568;-79
2023/04/02 04:41:12;;;;;;;16.98;13.80;;;3.40;99.90;;;;;;5010391;28;20263;-80
2023/04/02 04:43:43;;;;;;;18.80;15.18;;;3.40;99.90;;;;;;4999949;28;20194;-83
2023/04/02 04:46:22;;;;;;;16.23;13.95;;;3.40;99.90;;;;;;5003580;28;20407;-80
2023/04/02 04:49:10;;;;;;;18.48;15.50;;;3.40;99.90;;;;;;5002774;28;20224;-83
2023/04/02 04:51:53;;;;;;;19.67;15.68;;;3.40;99.90;;;;;;4994523;28;20222;-80
2023/04/02 04:54:24;;;;;;;19.02;16.13;;;3.40;99.90;;;;;;4989711;28;20221;-80
2023/04/02 04:56:58;;;;;;;20.55;15.13;;;3.40;99.90;;;;;;5006502;28;20251;-80
2023/04/02 04:59:31;;;;;;;18.63;15.45;;;3.50;99.90;;;;;;4985845;28;20235;-79
2023/04/02 05:02:21;;;;;;;20.00;16.65;;;3.50;99.90;;;;;;4977210;28;20232;-80
2023/04/02 05:04:50;;;;;;;21.55;17.10;;;3.60;99.90;;;;;;4993157;28;20209;-84
2023/04/02 05:07:30;;;;;;;25.02;18.05;;;3.60;99.90;;;;;;4996008;28;20218;-80
2023/04/02 05:10:05;;;;;;;25.02;19.77;;;3.60;99.90;;;;;;5002978;28;20283;-80
2023/04/02 05:12:49;;;;;;;26.35;20.30;;;3.70;99.90;;;;;;4998547;28;20219;-82
2023/04/02 05:15:26;;;;;;;23.58;20.83;;;3.70;99.90;;;;;;4998272;28;20216;-81
2023/04/02 05:18:14;;;;;;;32.10;24.20;;;3.70;99.90;;;;;;5002560;28;20536;-79
2023/04/02 05:20:50;;;;;;;33.90;22.50;;;3.60;99.90;;;;;;4979848;28;20204;-80
2023/04/02 05:23:24;;;;;;;31.50;21.45;;;3.70;99.90;;;;;;5006642;28;20389;-81
2023/04/02 05:26:05;;;;;;;28.15;21.35;;;3.70;99.90;;;;;;4993899;28;20201;-79
2023/04/02 05:28:41;;;;;;;25.02;21.52;;;3.70;99.90;;;;;;5000684;28;20723;-82
2023/04/02 05:31:16;;;;;;;27.17;20.90;;;3.60;99.90;;;;;;4994856;28;20258;-83
2023/04/02 05:33:46;;;;;;;29.42;20.23;;;3.60;99.90;;;;;;4995864;28;20563;-81
2023/04/02 05:36:25;;;;;;;26.25;19.58;;;3.60;99.90;;;;;;4996714;28;20372;-83
2023/04/02 05:38:55;;;;;;;25.55;16.38;;;3.70;99.90;;;;;;4977772;28;20263;-86
2023/04/02 05:41:42;;;;;;;19.73;15.55;;;3.70;99.90;;;;;;4980640;28;20256;-81
2023/04/02 05:44:23;;;;;;;22.95;19.02;;;3.70;99.90;;;;;;4997448;28;20205;-79
2023/04/02 05:47:10;;;;;;;22.88;16.90;;;3.60;99.90;;;;;;4995804;28;20203;-82
2023/04/02 05:49:49;;;;;;;29.08;17.33;;;3.60;99.90;;;;;;5008071;28;20280;-84
2023/04/02 05:52:22;;;;;;;27.90;19.38;;;3.60;99.90;;;;;;4993542;28;20215;-84
2023/04/02 05:55:11;;;;;;;22.10;17.27;;;3.50;99.90;;;;;;4981401;28;20221;-80
2023/04/02 05:57:52;;;;;;;27.70;18.08;;;3.60;99.90;;;;;;5000602;28;20562;-84
2023/04/02 06:00:38;;;;;;;19.02;15.75;;;3.60;99.90;;;;;;5008545;28;20204;-81
2023/04/02 06:03:31;;;;;;;18.42;14.38;;;3.60;99.90;;;;;;4997195;28;20236;-83
2023/04/02 06:06:05;;;;;;;18.20;16.15;;;3.60;99.90;;;;;;4986993;28;20204;-80
2023/04/02 06:08:49;;;;;;;18.95;14.73;;;3.60;99.90;;;;;;5007443;28;20630;-79
2023/04/02 06:11:41;;;;;;;16.77;13.88;;;3.70;99.90;;;;;;5005301;28;20440;-82
2023/04/02 06:14:12;;;;;;;17.20;13.00;;;3.70;99.90;;;;;;4989634;28;20216;-85
2023/04/02 06:16:39;;;;;;;17.73;13.73;;;3.80;99.90;;;;;;5012983;28;20207;-82
2023/04/02 06:19:30;;;;;;;16.40;13.85;;;3.80;99.90;;;;;;5009003;28;20653;-82
2023/04/02 06:22:07;;;;;;;16.95;13.50;;;3.80;99.90;;;;;;4996896;28;20483;-81
2023/04/02 06:24:37;;;;;;;14.65;11.60;;;3.80;99.90;;;;;;5000932;28;20246;-83
2023/04/02 06:27:05;;;;;;;14.77;12.38;;;3.80;99.90;;;;;;5010034;28;20211;-81
2023/04/02 06:29:39;;;;;;;14.23;11.68;;;3.80;99.90;;;;;;5001546;28;20209;-83
2023/04/02 06:32:07;;;;;;;13.95;9.85;;;3.90;99.90;;;;;;4985378;28;20223;-86
2023/04/02 06:34:38;;;;;;;16.90;10.10;;;3.90;99.90;;;;;;5002234;28;20237;-82
2023/04/02 06:37:23;;;;;;;10.50;9.32;;;3.90;99.90;;;;;;4998516;28;20215;-81
2023/04/02 06:39:50;;;;;;;10.32;8.80;;;3.90;99.90;;;;;;5001794;28;20667;-84
2023/04/02 06:42:27;;;;;;;8.82;7.93;;;3.80;99.90;;;;;;5007888;28;20244;-82
2023/04/02 06:44:54;;;;;;;10.77;9.13;;;3.70;99.90;;;;;;5002443;28;20279;-80
2023/04/02 06:47:37;;;;;;;9.07;8.18;;;3.90;99.90;;;;;;5010903;28;20504;-81
2023/04/02 06:50:30;;;;;;;8.23;6.47;;;4.00;99.90;;;;;;5013294;28;20205;-81
2023/04/02 06:53:05;;;;;;;7.35;6.60;;;4.00;99.90;;;;;;4998291;28;20212;-82
2023/04/02 06:55:54;;;;;;;6.10;5.00;;;4.00;99.90;;;;;;4986203;28;20217;-80
2023/04/02 06:58:20;;;;;;;5.85;5.35;;;4.00;99.90;;;;;;4991002;28;20522;-84
2023/04/02 07:00:49;;;;;;;5.00;4.43;;;4.00;99.90;;;;;;5001192;28;20223;-82
2023/04/02 07:03:27;;;;;;;5.93;5.35;;;4.00;99.90;;;;;;5007533;28;20246;-81
2023/04/02 07:05:54;;;;;;;6.25;5.25;;;4.00;99.90;;;;;;4995384;28;20205;-85
2023/04/02 07:08:22;;;;;;;5.50;5.00;;;4.00;99.90;;;;;;4983390;28;20255;-83
2023/04/02 07:10:49;;;;;;;6.38;5.75;;;3.90;99.90;;;;;;4972894;28;20208;-82
2023/04/02 07:13:19;;;;;;;5.85;5.35;;;3.90;99.90;;;;;;4990432;28;20240;-82
2023/04/02 07:15:49;;;;;;;7.18;5.45;;;3.90;99.90;;;;;;5003962;28;20253;-81
2023/04/02 07:18:31;;;;;;;5.53;5.03;;;3.90;99.90;;;;;;5000481;28;20232;-81
2023/04/02 07:20:58;;;;;;;6.97;6.25;;;3.90;99.90;;;;;;4992994;28;20383;-81
2023/04/02 07:23:26;;;;;;;7.90;5.78;;;4.00;99.90;;;;;;4999130;28;20222;-81
2023/04/02 07:25:55;;;;;;;5.90;5.22;;;4.00;99.90;;;;;;4986717;28;20212;-79
2023/04/02 07:28:22;;;;;;;6.70;6.05;;;4.10;99.90;;;;;;4991719;28;20244;-80
2023/04/02 07:30:50;;;;;;;10.02;6.22;;;4.20;99.90;;;;;;4989919;28;20205;-84
2023/04/02 07:33:19;;;;;;;6.68;5.95;;;4.20;99.90;;;;;;4997160;28;20583;-84
2023/04/02 07:35:48;;;;;;;6.38;5.50;;;4.20;99.90;;;;;;4978406;28;20243;-85
2023/04/02 07:38:15;;;;;;;10.48;6.88;;;4.20;99.90;;;;;;4992771;28;20220;-78
2023/04/02 07:40:42;;;;;;;6.68;5.97;;;4.30;99.90;;;;;;4993897;28;20633;-87
2023/04/02 07:43:10;;;;;;;7.18;5.95;;;4.30;99.90;;;;;;4997459;28;20280;-78
2023/04/02 07:45:38;;;;;;;5.78;5.15;;;4.20;99.90;;;;;;4997217;28;20296;-82
2023/04/02 07:48:10;;;;;;;6.68;6.07;;;4.10;99.90;;;;;;5000966;28;20601;-81
2023/04/02 07:50:37;;;;;;;8.27;4.72;;;4.10;99.90;;;;;;4999032;28;20437;-80
2023/04/02 07:53:04;;;;;;;4.25;3.85;;;4.10;99.90;;;;;;4999557;28;20270;-80
2023/04/02 07:55:30;;;;;;;5.60;5.00;;;4.00;99.90;;;;;;4992199;28;20217;-81
2023/04/02 07:57:59;;;;;;;5.93;4.18;;;4.00;99.90;;;;;;5006294;28;20259;-82
2023/04/02 08:00:27;;;;;;;6.25;4.97;;;4.00;99.90;;;;;;4994226;28;20215;-81
2023/04/02 08:02:54;;;;;;;6.10;4.80;;;4.00;99.90;;;;;;4993901;28;20225;-82
2023/04/02 08:05:22;;;;;;;5.82;4.93;;;4.00;99.90;;;;;;5002514;28;20200;-80
2023/04/02 08:07:56;;;;;;;5.70;5.20;;;4.10;99.90;;;;;;4997254;28;20401;-82
2023/04/02 08:10:23;;;;;;;5.57;3.83;;;4.10;99.90;;;;;;4998262;28;20212;-80
2023/04/02 08:12:50;;;;;;;5.35;4.43;;;4.10;99.90;;;;;;4996377;28;20220;-82
2023/04/02 08:15:17;;;;;;;6.55;4.38;;;4.20;99.90;;;;;;4984417;28;20212;-86
2023/04/02 08:17:45;;;;;;;4.35;3.95;;;4.30;99.90;;;;;;5000844;28;20235;-81
2023/04/02 08:20:20;;;;;;;5.45;4.95;;;4.50;99.90;;;;;;5007355;28;20211;-81
2023/04/02 08:22:49;;;;;;;4.93;4.53;;;4.50;99.90;;;;;;5003158;28;20270;-82
2023/04/02 08:25:16;;;;;;;7.70;5.15;;;4.50;99.90;;;;;;5011583;28;20197;-82
2023/04/02 08:27:46;;;;;;;5.32;4.82;;;4.40;99.90;;;;;;4997650;28;20236;-81
2023/04/02 08:30:14;;;;;;;4.65;4.20;;;4.20;99.90;;;;;;4992517;28;20205;-81
2023/04/02 08:32:41;;;;;;;4.47;4.18;;;4.30;99.90;;;;;;5006735;28;20260;-81
2023/04/02 08:35:10;;;;;;;4.53;3.97;;;4.40;99.90;;;;;;4999022;28;20201;-81
2023/04/02 08:37:37;;;;;;;3.90;3.42;;;4.50;99.90;;;;;;4998284;28;20204;-80
2023/04/02 08:40:08;;;;;;;4.28;3.88;;;4.70;99.90;;;;;;4999145;28;20493;-80
2023/04/02 08:42:57;;;;;;;2.95;2.70;;;4.80;99.90;;;;;;5003642;28;20237;-81
2023/04/02 08:45:46;;;;;;;4.15;3.30;;;4.80;99.90;;;;;;5000715;28;20243;-83
2023/04/02 08:48:14;;;;;;;3.10;2.88;;;4.70;99.90;;;;;;5007056;28;20226;-81
2023/04/02 08:50:44;;;;;;;3.75;3.17;;;4.70;99.90;;;;;;5004093;28;20617;-80
2023/04/02 08:53:17;;;;;;;2.85;2.60;;;4.60;99.90;;;;;;4998545;28;20241;-82
2023/04/02 08:55:54;;;;;;;2.75;2.55;;;4.60;99.90;;;;;;4994132;28;21649;-82
2023/04/02 08:58:40;;;;;;;3.05;2.75;;;4.70;99.90;;;;;;5005622;28;20209;-80
2023/04/02 09:01:19;;;;;;;4.28;3.20;;;4.60;99.90;;;;;;5002387;28;20209;-82
2023/04/02 09:03:49;;;;;;;3.60;3.30;;;4.70;99.90;;;;;;5004806;28;20231;-82
2023/04/02 09:06:18;;;;;;;4.90;3.85;;;4.60;99.90;;;;;;4983167;28;20209;-81
2023/04/02 09:08:49;;;;;;;3.63;3.33;;;4.70;99.90;;;;;;4999809;28;20244;-80
2023/04/02 09:11:28;;;;;;;4.25;3.85;;;5.00;99.90;;;;;;4995861;28;20248;-82
2023/04/02 09:13:58;;;;;;;4.20;3.80;;;5.10;99.90;;;;;;5003909;28;20216;-80
2023/04/02 09:16:40;;;;;;;4.07;3.70;;;5.00;99.90;;;;;;4984405;28;20210;-81
2023/04/02 09:19:25;;;;;;;4.60;4.28;;;5.30;99.90;;;;;;4999562;28;20251;-83
2023/04/02 09:22:04;;;;;;;6.18;4.85;;;5.40;99.90;;;;;;4999714;28;20248;-82
2023/04/02 09:24:32;;;;;;;7.80;5.05;;;5.50;99.90;;;;;;4982903;28;20267;-89
2023/04/02 09:26:59;;;;;;;5.38;4.68;;;5.30;99.90;;;;;;4998461;28;20205;-82
2023/04/02 09:29:45;;;;;;;5.05;4.05;;;5.50;99.90;;;;;;4990875;28;20212;-86
2023/04/02 09:32:33;;;;;;;5.00;4.25;;;5.50;99.90;;;;;;5007549;28;20248;-83
2023/04/02 09:35:11;;;;;;;6.80;5.00;;;5.40;99.90;;;;;;4999279;28;20208;-81
2023/04/02 09:38:15;;;;;;;6.63;4.28;;;5.30;99.90;;;;;;5004732;28;20265;-82
2023/04/02 09:40:57;;;;;;;5.00;4.40;;;5.40;99.90;;;;;;5010913;28;20211;-83
2023/04/02 09:43:35;;;;;;;4.63;4.03;;;5.40;99.90;;;;;;4988417;28;20244;-81
2023/04/02 09:46:12;;;;;;;5.45;5.05;;;5.30;99.90;;;;;;4998461;28;20207;-82
2023/04/02 09:48:42;;;;;;;4.95;4.47;;;5.20;99.90;;;;;;5006748;28;20498;-83
2023/04/02 09:51:20;;;;;;;6.03;4.07;;;5.20;99.90;;;;;;5002407;28;20209;-82
2023/04/02 09:53:49;;;;;;;6.43;3.78;;;5.10;99.90;;;;;;5011991;28;20321;-85
2023/04/02 09:56:24;;;;;;;5.50;4.20;;;5.20;99.90;;;;;;5007107;28;20226;-81
2023/04/02 09:59:16;;;;;;;4.07;3.60;;;5.30;99.90;;;;;;5007004;28;20212;-83
2023/04/02 10:01:52;;;;;;;8.38;4.03;;;5.40;99.90;;;;;;5004697;28;20204;-81
2023/04/02 10:04:43;;;;;;;4.35;3.88;;;5.30;99.90;;;;;;5012127;28;20235;-83
2023/04/02 10:07:33;;;;;;;6.10;4.28;;;5.00;99.90;;;;;;5002219;28;20213;-81
2023/04/02 10:10:29;;;;;;;4.25;3.95;;;4.80;99.90;;;;;;4983492;28;20206;-85
2023/04/02 10:13:05;;;;;;;5.07;3.50;;;4.90;99.90;;;;;;5000974;28;20256;-84
2023/04/02 10:16:05;;;;;;;4.13;3.80;;;5.10;99.90;;;;;;4999631;28;20409;-84
2023/04/02 10:18:51;;;;;;;5.10;4.60;;;5.30;99.90;;;;;;5008765;28;20663;-81
2023/04/02 10:21:31;;;;;;;3.65;3.10;;;5.40;99.90;;;;;;5002738;28;20220;-83
2023/04/02 10:24:01;;;;;;;5.47;3.20;;;5.50;99.90;;;;;;4994795;28;20637;-82
2023/04/02 10:26:47;;;;;;;4.93;3.25;;;5.60;99.90;;;;;;5008448;28;20206;-82
2023/04/02 10:29:21;;;;;;;4.43;3.80;;;5.50;99.90;;;;;;4986350;28;20394;-80
2023/04/02 10:32:23;;;;;;;4.82;4.32;;;5.30;99.90;;;;;;5007921;28;20200;-80
2023/04/02 10:34:57;;;;;;;5.60;3.90;;;5.40;99.90;;;;;;5004451;28;20223;-83
2023/04/02 10:37:46;;;;;;;7.55;4.15;;;5.60;99.90;;;;;;5004722;28;20477;-82
2023/04/02 10:40:25;;;;;;;5.00;3.60;;;5.80;99.90;;;;;;5007633;28;20262;-81
2023/04/02 10:43:28;;;;;;;3.83;3.40;;;5.70;99.90;;;;;;5003221;28;20217;-82
2023/04/02 10:46:24;;;;;;;4.80;4.30;;;5.50;99.90;;;;;;5019220;28;20213;-82
2023/04/02 10:48:54;;;;;;;3.95;3.30;;;5.40;99.90;;;;;;4989537;28;20263;-79
2023/04/02 10:51:47;;;;;;;3.63;3.33;;;5.30;99.90;;;;;;5004257;28;20244;-80
2023/04/02 10:54:20;;;;;;;4.95;4.30;;;5.20;99.90;;;;;;5000887;28;20234;-82
2023/04/02 10:56:51;;;;;;;4.50;3.78;;;5.20;99.90;;;;;;4985796;28;20205;-81
2023/04/02 10:59:24;;;;;;;7.28;4.00;;;5.30;99.90;;;;;;5005743;28;20248;-80
2023/04/02 11:01:55;;;;;;;7.82;3.90;;;5.30;99.90;;;;;;4997914;28;20212;-81
2023/04/02 11:04:29;;;;;;;6.47;4.38;;;5.40;99.90;;;;;;4985353;28;20208;-83
2023/04/02 11:07:06;;;;;;;4.72;3.50;;;5.50;99.90;;;;;;4997160;28;20226;-80
2023/04/02 11:09:43;;;;;;;4.63;3.20;;;5.60;99.90;;;;;;5004230;28;20236;-83
2023/04/02 11:12:20;;;;;;;4.85;3.83;;;5.50;99.90;;;;;;4987550;28;20501;-80
2023/04/02 11:14:49;;;;;;;6.20;3.28;;;5.40;99.90;;;;;;4993121;28;20217;-80
2023/04/02 11:17:17;;;;;;;3.75;3.33;;;5.30;99.90;;;;;;5007334;28;20235;-84
2023/04/02 11:19:44;;;;;;;4.47;4.03;;;5.30;99.90;;;;;;4997821;28;20208;-81
2023/04/02 11:22:24;;;;;;;5.65;4.03;;;5.20;99.90;;;;;;4982469;28;20244;-82
2023/04/02 11:24:53;;;;;;;2.90;2.42;;;5.20;99.90;;;;;;5009233;28;20256;-81
2023/04/02 11:27:25;;;;;;;6.90;3.75;;;5.20;99.90;;;;;;4985987;28;20217;-82
2023/04/02 11:30:14;;;;;;;3.15;2.50;;;5.10;99.90;;;;;;4980778;28;20609;-83
2023/04/02 11:32:48;;;;;;;4.65;4.20;;;5.20;99.90;;;;;;5008703;28;20276;-82
2023/04/02 11:35:30;;;;;;;3.53;3.22;;;5.20;99.90;;;;;;4982256;28;20209;-82
2023/04/02 11:38:09;;;;;;;3.85;3.47;;;5.30;99.90;;;;;;5009417;28;20228;-84
2023/04/02 11:40:53;;;;;;;3.85;3.55;;;5.30;99.90;;;;;;5006946;28;20220;-81
2023/04/02 11:43:32;;;;;;;4.82;3.47;;;5.20;99.90;;;;;;5003177;28;20244;-80
2023/04/02 11:46:24;;;;;;;5.82;3.88;;;5.30;99.90;;;;;;5000106;28;20251;-80
2023/04/02 11:48:54;;;;;;;9.80;3.97;;;5.50;99.90;;;;;;5005075;28;20268;-82
2023/04/02 11:51:23;;;;;;;5.00;2.88;;;5.50;99.90;;;;;;4996829;28;20217;-81
2023/04/02 11:53:57;;;;;;;4.20;3.50;;;5.50;99.90;;;;;;5006247;28;20299;-84
2023/04/02 11:56:51;;;;;;;6.10;3.28;;;5.40;99.90;;;;;;5002430;28;20205;-82
2023/04/02 11:59:27;;;;;;;4.05;3.42;;;5.40;99.90;;;;;;4991505;28;20256;-86
2023/04/02 12:02:02;;;;;;;5.65;3.38;;;5.70;99.90;;;;;;4982451;28;20212;-85
2023/04/02 12:05:06;;;;;;;4.68;3.90;;;5.70;99.90;;;;;;5003866;28;20209;-85
2023/04/02 12:08:04;;;;;;;5.30;3.05;;;5.60;99.90;;;;;;4995641;28;20210;-83
2023/04/02 12:10:33;;;;;;;4.68;3.70;;;5.60;99.90;;;;;;4985472;28;20385;-81
2023/04/02 12:13:01;;;;;;;3.35;3.13;;;5.40;99.90;;;;;;5010964;28;20236;-82
2023/04/02 12:15:45;;;;;;;4.00;3.40;;;5.30;99.90;;;;;;5000812;28;20657;-85
2023/04/02 12:18:20;;;;;;;6.13;4.05;;;5.30;99.90;;;;;;4984827;28;20208;-82
2023/04/02 12:20:54;;;;;;;6.93;3.90;;;5.30;99.90;;;;;;5000815;28;20211;-81
2023/04/02 12:23:32;;;;;;;4.00;3.70;;;5.40;99.90;;;;;;4992756;28;20208;-84
2023/04/02 12:26:05;;;;;;;5.32;3.97;;;5.40;99.90;;;;;;5002180;28;20218;-82
2023/04/02 12:28:33;;;;;;;7.18;4.75;;;5.40;99.90;;;;;;4988144;28;20216;-82
2023/04/02 12:31:16;;;;;;;3.47;3.10;;;5.50;99.90;;;;;;4987213;28;20252;-81
2023/04/02 12:33:44;;;;;;;5.15;3.80;;;5.40;99.90;;;;;;5007909;28;20226;-84
2023/04/02 12:36:21;;;;;;;3.63;3.33;;;5.40;99.90;;;;;;4994998;28;20216;-82
2023/04/02 12:38:56;;;;;;;4.70;4.03;;;5.40;99.90;;;;;;5014852;28;20188;-82
2023/04/02 12:41:32;;;;;;;4.03;3.72;;;5.50;99.90;;;;;;5008997;28;20197;-81
2023/04/02 12:44:00;;;;;;;3.50;3.10;;;5.50;99.90;;;;;;4998888;28;20286;-83
2023/04/02 12:46:29;;;;;;;6.45;3.72;;;5.50;99.90;;;;;;4997135;28;20235;-80
2023/04/02 12:49:26;;;;;;;4.13;3.83;;;5.70;99.90;;;;;;4992317;28;20316;-81
2023/04/02 12:51:55;;;;;;;7.63;4.00;;;5.70;99.90;;;;;;5005521;28;20272;-83
2023/04/02 12:54:22;;;;;;;4.25;3.35;;;5.70;99.90;;;;;;5003010;28;20233;-82
2023/04/02 12:56:50;;;;;;;5.72;3.55;;;5.70;99.90;;;;;;4993378;28;20205;-81
2023/04/02 12:59:33;;;;;;;3.58;3.28;;;5.70;99.90;;;;;;5003398;28;20489;-85
2023/04/02 13:02:15;;;;;;;3.80;3.15;;;5.80;99.90;;;;;;5007264;28;20382;-82
2023/04/02 13:04:47;;;;;;;5.97;4.82;;;5.90;99.90;;;;;;5001695;28;20198;-82
2023/04/02 13:07:17;;;;;;;4.82;3.42;;;5.90;99.90;;;;;;5003747;28;20200;-84
2023/04/02 13:09:50;;;;;;;4.97;3.53;;;5.90;99.90;;;;;;4998278;28;20214;-80
2023/04/02 13:12:37;;;;;;;4.13;3.65;;;5.80;99.90;;;;;;4987486;28;20205;-81
2023/04/02 13:15:06;;;;;;;4.70;3.60;;;5.90;99.90;;;;;;4996037;28;20466;-81
2023/04/02 13:17:35;;;;;;;3.50;3.17;;;5.70;99.90;;;;;;4994236;28;20274;-80
2023/04/02 13:20:32;;;;;;;4.95;3.10;;;5.80;99.90;;;;;;5006835;28;20209;-87
2023/04/02 13:23:01;;;;;;;7.75;4.10;;;5.80;99.90;;;;;;4998085;28;20427;-86
2023/04/02 13:25:30;;;;;;;4.28;3.20;;;5.80;99.90;;;;;;4985469;28;20216;-80
2023/04/02 13:27:58;;;;;;;2.97;2.65;;;5.70;99.90;;;;;;4975327;28;20252;-82
2023/04/02 13:30:26;;;;;;;4.18;3.58;;;5.80;99.90;;;;;;5000460;28;20204;-86
2023/04/02 13:32:55;;;;;;;4.90;3.40;;;5.80;99.90;;;;;;4999903;28;20260;-81